Time;durP1;ratioP1;P1;durP2;ratioP2;P2;SDS_P1;SDS_P2;PMS_P1;PMS_P2;Temp;Humidity;BMP_temperature;BMP_pressure;BME280_temperature;BME280_humidity;BME280_pressure;Samples;Min_cycle;Max_cycle;Signal;HPM_P1;HPM_P2
2023/01/08 00:02:05;;;;;;;13.35;9.40;;;;;;;-6.19;68.09;101063.31;1838316;77;21017;-73
2023/01/08 00:04:33;;;;;;;13.70;9.40;;;;;;;-6.17;67.93;101068.86;1833148;77;21026;-72
2023/01/08 00:06:59;;;;;;;15.93;9.40;;;;;;;-6.16;68.01;101057.64;1840707;77;21061;-73
2023/01/08 00:09:25;;;;;;;20.35;11.95;;;;;;;-6.13;68.13;101065.77;1844282;77;21040;-73
2023/01/08 00:11:52;;;;;;;17.85;11.03;;;;;;;-6.08;68.16;101079.48;1839633;77;21484;-73
2023/01/08 00:14:18;;;;;;;17.85;11.05;;;;;;;-6.03;68.08;101075.05;1818233;77;21564;-73
2023/01/08 00:16:47;;;;;;;17.55;11.22;;;;;;;-6.02;68.06;101070.75;1796672;77;21028;-75
2023/01/08 00:19:14;;;;;;;15.28;9.93;;;;;;;-6.01;67.90;101068.56;1855511;77;20976;-74
2023/01/08 00:21:41;;;;;;;16.57;10.75;;;;;;;-5.96;67.95;101066.74;1840414;77;21517;-73
2023/01/08 00:24:07;;;;;;;17.67;9.83;;;;;;;-5.87;67.83;101064.36;1820904;78;21159;-72
2023/01/08 00:26:35;;;;;;;15.78;9.50;;;;;;;-5.85;67.52;101066.48;1808874;78;21005;-72
2023/01/08 00:29:02;;;;;;;18.15;10.72;;;;;;;-5.90;67.52;101065.73;1789287;78;21013;-75
2023/01/08 00:31:28;;;;;;;13.38;8.25;;;;;;;-5.89;67.44;101070.02;1812201;78;21045;-75
2023/01/08 00:33:55;;;;;;;15.85;10.05;;;;;;;-5.95;67.32;101067.98;1796743;79;21854;-74
2023/01/08 00:36:21;;;;;;;17.27;10.45;;;;;;;-6.02;67.44;101057.37;1802072;79;21661;-75
2023/01/08 00:38:48;;;;;;;18.07;10.35;;;;;;;-6.03;67.63;101062.56;1788853;78;20986;-72
2023/01/08 00:41:14;;;;;;;17.37;9.70;;;;;;;-6.00;67.62;101065.10;1803703;78;21045;-73
2023/01/08 00:43:41;;;;;;;17.77;10.35;;;;;;;-6.00;67.51;101069.83;1811036;78;21041;-74
2023/01/08 00:46:08;;;;;;;17.10;9.68;;;;;;;-6.05;67.49;101057.86;1820591;78;21044;-73
2023/01/08 00:48:38;;;;;;;16.23;10.23;;;;;;;-6.09;67.74;101060.95;1802932;78;21080;-74
2023/01/08 00:51:06;;;;;;;16.25;9.75;;;;;;;-6.04;67.77;101058.29;1808061;78;20982;-74
2023/01/08 00:53:33;;;;;;;16.55;10.15;;;;;;;-6.07;67.80;101056.59;1798021;78;21085;-74
2023/01/08 00:56:04;;;;;;;17.67;10.28;;;;;;;-6.05;67.96;101056.56;1788669;80;21041;-75
2023/01/08 00:58:30;;;;;;;16.12;9.65;;;;;;;-6.07;68.05;101059.63;1809711;78;21005;-75
2023/01/08 01:00:57;;;;;;;17.27;10.72;;;;;;;-6.07;67.94;101055.75;1820650;78;21319;-74
2023/01/08 01:03:24;;;;;;;18.10;11.03;;;;;;;-6.08;68.04;101059.20;1820626;78;21184;-74
2023/01/08 01:06:01;;;;;;;17.55;10.88;;;;;;;-6.10;68.03;101061.84;1822044;78;20997;-74
2023/01/08 01:08:29;;;;;;;24.00;12.20;;;;;;;-6.10;68.06;101054.50;1793991;78;21095;-73
2023/01/08 01:10:56;;;;;;;19.37;11.60;;;;;;;-6.14;68.10;101048.56;1799553;78;21030;-75
2023/01/08 01:13:22;;;;;;;17.05;10.63;;;;;;;-6.11;68.16;101047.19;1808062;78;21692;-73
2023/01/08 01:15:59;;;;;;;16.70;10.25;;;;;;;-6.10;68.39;101045.45;1841081;77;21009;-72
2023/01/08 01:18:25;;;;;;;19.27;10.30;;;;;;;-6.09;68.24;101048.02;1849519;77;21025;-73
2023/01/08 01:20:52;;;;;;;17.60;11.05;;;;;;;-6.09;68.09;101044.58;1848964;77;21581;-74
2023/01/08 01:23:18;;;;;;;16.95;10.58;;;;;;;-6.13;68.06;101047.66;1849107;77;21469;-74
2023/01/08 01:25:44;;;;;;;19.00;11.88;;;;;;;-6.19;68.26;101042.17;1849179;77;21848;-73
2023/01/08 01:28:11;;;;;;;18.75;11.73;;;;;;;-6.14;68.30;101042.94;1849563;77;21165;-73
2023/01/08 01:30:38;;;;;;;18.82;11.90;;;;;;;-6.10;68.38;101042.86;1848516;77;20974;-71
2023/01/08 01:33:04;;;;;;;16.77;10.55;;;;;;;-6.07;68.29;101050.58;1848502;77;21493;-73
2023/01/08 01:35:31;;;;;;;23.22;11.73;;;;;;;-6.10;68.02;101045.03;1848616;77;21009;-72
2023/01/08 01:37:57;;;;;;;17.60;11.25;;;;;;;-6.21;67.92;101054.28;1849299;77;21054;-72
2023/01/08 01:40:24;;;;;;;19.95;11.10;;;;;;;-6.26;68.02;101047.48;1849079;77;21478;-72
2023/01/08 01:42:50;;;;;;;17.12;10.82;;;;;;;-6.27;68.22;101050.52;1849775;77;21018;-71
2023/01/08 01:45:23;;;;;;;22.30;11.05;;;;;;;-6.22;68.17;101053.01;1850326;77;20982;-72
2023/01/08 01:48:00;;;;;;;19.23;10.98;;;;;;;-6.22;68.12;101051.30;1850317;77;21081;-72
2023/01/08 01:50:37;;;;;;;23.05;12.07;;;;;;;-6.25;67.93;101042.30;1849826;77;21533;-72
2023/01/08 01:53:17;;;;;;;19.65;11.33;;;;;;;-6.24;68.06;101048.31;1827099;77;21442;-73
2023/01/08 01:55:43;;;;;;;18.80;10.78;;;;;;;-6.20;68.11;101049.95;1850665;77;20952;-74
2023/01/08 01:58:16;;;;;;;21.73;12.33;;;;;;;-6.18;68.10;101042.59;1837163;77;20990;-74
2023/01/08 02:00:43;;;;;;;20.43;12.68;;;;;;;-6.15;68.11;101036.05;1775561;80;20994;-75
2023/01/08 02:03:10;;;;;;;21.80;12.55;;;;;;;-6.07;67.98;101042.81;1770709;81;21241;-73
2023/01/08 02:06:04;;;;;;;23.15;13.28;;;;;;;-6.07;67.91;101040.22;1773705;79;21092;-72
2023/01/08 02:08:58;;;;;;;25.95;12.98;;;;;;;-6.07;67.72;101038.48;1805179;79;21061;-73
2023/01/08 02:12:17;;;;;;;20.68;11.65;;;;;;;-6.07;67.70;101043.66;1805592;79;20983;-74
2023/01/08 02:15:06;;;;;;;22.80;12.40;;;;;;;-6.07;67.58;101041.52;1787173;79;21002;-73
2023/01/08 02:17:41;;;;;;;23.65;12.75;;;;;;;-6.16;67.70;101039.53;1786963;79;21791;-73
2023/01/08 02:20:12;;;;;;;23.15;13.05;;;;;;;-6.11;67.73;101047.64;1777430;79;21035;-73
2023/01/08 02:23:12;;;;;;;22.32;13.43;;;;;;;-6.13;67.62;101056.72;1774240;79;20994;-75
2023/01/08 02:26:11;;;;;;;20.80;11.48;;;;;;;-6.16;67.33;101054.17;1788880;79;21013;-73
2023/01/08 02:28:58;;;;;;;24.10;12.55;;;;;;;-6.24;67.12;101057.36;1794017;79;21292;-73
2023/01/08 02:31:25;;;;;;;22.35;12.75;;;;;;;-6.36;67.33;101044.22;1770806;80;21938;-72
2023/01/08 02:33:52;;;;;;;21.50;12.78;;;;;;;-6.37;67.55;101052.44;1801576;79;21003;-76
2023/01/08 02:36:33;;;;;;;30.52;15.20;;;;;;;-6.37;67.67;101055.02;1734047;83;21120;-75
2023/01/08 02:39:15;;;;;;;28.15;13.90;;;;;;;-6.33;67.70;101053.23;1734819;82;21137;-75
2023/01/08 02:42:02;;;;;;;27.60;13.65;;;;;;;-6.33;67.68;101054.08;1731095;82;20984;-70
2023/01/08 02:44:46;;;;;;;26.45;13.68;;;;;;;-6.30;67.74;101054.45;1754017;80;21500;-74
2023/01/08 02:47:35;;;;;;;26.97;14.53;;;;;;;-6.29;67.43;101051.45;1762387;81;20958;-74
2023/01/08 02:50:24;;;;;;;31.73;14.47;;;;;;;-6.38;67.41;101061.05;1803702;78;20999;-75
2023/01/08 02:53:04;;;;;;;25.02;12.25;;;;;;;-6.52;67.83;101059.17;1773133;81;21052;-74
2023/01/08 02:55:33;;;;;;;23.05;12.65;;;;;;;-6.46;68.04;101056.92;1758307;80;21080;-73
2023/01/08 02:57:59;;;;;;;26.37;13.80;;;;;;;-6.45;67.84;101056.02;1790218;79;21732;-73
2023/01/08 03:00:25;;;;;;;24.57;12.80;;;;;;;-6.53;67.97;101053.16;1767987;81;21011;-75
2023/01/08 03:03:02;;;;;;;26.90;13.65;;;;;;;-6.54;68.11;101059.20;1768544;81;20967;-76
2023/01/08 03:05:29;;;;;;;26.25;11.97;;;;;;;-6.53;68.09;101058.33;1768614;79;20983;-75
2023/01/08 03:07:57;;;;;;;25.50;13.53;;;;;;;-6.49;68.02;101052.64;1783684;80;20982;-76
2023/01/08 03:10:24;;;;;;;21.97;12.40;;;;;;;-6.46;68.00;101047.88;1839649;77;21468;-74
2023/01/08 03:13:20;;;;;;;23.92;11.75;;;;;;;-6.45;67.99;101040.09;1837095;77;20983;-74
2023/01/08 03:15:50;;;;;;;27.65;13.48;;;;;;;-6.42;67.88;101037.43;1761684;79;20970;-76
2023/01/08 03:18:24;;;;;;;28.12;15.43;;;;;;;-6.44;67.88;101043.08;1803989;79;21017;-74
2023/01/08 03:20:51;;;;;;;30.23;14.75;;;;;;;-6.41;68.07;101040.45;1778072;80;21070;-75
2023/01/08 03:23:17;;;;;;;24.70;14.75;;;;;;;-6.38;68.00;101042.95;1742555;81;21440;-75
2023/01/08 03:25:46;;;;;;;25.23;12.68;;;;;;;-6.33;68.01;101044.18;1765288;77;20947;-74
2023/01/08 03:28:21;;;;;;;22.05;12.18;;;;;;;-6.31;67.94;101047.59;1769490;80;21823;-71
2023/01/08 03:30:47;;;;;;;26.95;14.33;;;;;;;-6.34;67.67;101043.75;1773087;80;20995;-72
2023/01/08 03:33:14;;;;;;;26.27;14.00;;;;;;;-6.43;67.80;101049.09;1779286;80;20999;-70
2023/01/08 03:35:41;;;;;;;26.80;14.58;;;;;;;-6.47;68.10;101050.03;1755260;80;21094;-73
2023/01/08 03:38:14;;;;;;;24.65;13.28;;;;;;;-6.40;68.21;101042.13;1779001;80;21026;-72
2023/01/08 03:40:46;;;;;;;24.27;13.50;;;;;;;-6.34;68.17;101044.59;1850292;77;21045;-73
2023/01/08 03:43:12;;;;;;;23.85;13.40;;;;;;;-6.29;68.13;101050.15;1841583;77;20997;-75
2023/01/08 03:45:41;;;;;;;24.77;13.18;;;;;;;-6.22;68.05;101047.42;1836339;77;21010;-74
2023/01/08 03:48:09;;;;;;;25.37;12.00;;;;;;;-6.23;67.94;101056.50;1820582;77;21046;-74
2023/01/08 03:50:36;;;;;;;25.90;13.00;;;;;;;-6.25;67.97;101048.76;1841200;77;21497;-74
2023/01/08 03:53:03;;;;;;;23.25;12.80;;;;;;;-6.26;67.90;101048.78;1849041;77;21114;-72
2023/01/08 03:55:29;;;;;;;26.27;13.13;;;;;;;-6.29;67.85;101040.66;1831197;77;20925;-72
2023/01/08 03:57:55;;;;;;;23.45;12.47;;;;;;;-6.38;67.97;101049.42;1839516;77;21072;-73
2023/01/08 04:00:22;;;;;;;25.80;12.70;;;;;;;-6.37;68.25;101043.83;1850371;77;21099;-75
2023/01/08 04:02:48;;;;;;;21.40;12.68;;;;;;;-6.39;68.28;101043.85;1848291;77;21029;-73
2023/01/08 04:05:15;;;;;;;23.47;11.78;;;;;;;-6.43;68.35;101054.27;1849023;77;21561;-73
2023/01/08 04:07:41;;;;;;;22.95;13.35;;;;;;;-6.47;68.53;101053.49;1849237;77;20974;-75
2023/01/08 04:10:09;;;;;;;22.30;13.18;;;;;;;-6.46;68.66;101058.22;1849313;77;21044;-74
2023/01/08 04:12:35;;;;;;;20.05;11.22;;;;;;;-6.47;68.83;101061.25;1827686;77;21508;-75
2023/01/08 04:15:02;;;;;;;21.50;11.57;;;;;;;-6.46;68.80;101060.80;1818615;77;20979;-75
2023/01/08 04:17:29;;;;;;;23.18;12.10;;;;;;;-6.52;68.81;101061.77;1835231;77;21299;-74
2023/01/08 04:19:55;;;;;;;21.35;12.58;;;;;;;-6.53;69.10;101060.92;1848265;77;21025;-73
2023/01/08 04:22:22;;;;;;;18.00;11.25;;;;;;;-6.50;69.18;101061.74;1830201;77;20968;-72
2023/01/08 04:24:48;;;;;;;21.10;12.20;;;;;;;-6.48;69.44;101060.82;1843979;77;21092;-72
2023/01/08 04:27:16;;;;;;;21.73;12.63;;;;;;;-6.41;69.39;101057.25;1823503;77;21006;-75
2023/01/08 04:33:41;;;;;;;19.90;12.20;;;;;;;-6.23;69.42;101052.09;104791;1290;600124;-74
2023/01/08 04:36:08;;;;;;;20.70;12.60;;;;;;;-6.25;69.29;101052.46;106595;1270;58939;-74
2023/01/08 04:38:35;;;;;;;25.20;13.60;;;;;;;-6.31;69.44;101056.55;106361;1267;61399;-76
2023/01/08 04:41:03;;;;;;;22.00;12.00;;;;;;;-6.40;69.52;101057.74;106127;1266;72136;-75
2023/01/08 04:43:30;;;;;;;26.20;13.80;;;;;;;-6.50;69.48;101054.48;106257;1266;70172;-73
2023/01/08 04:45:58;;;;;;;21.90;12.70;;;;;;;-6.63;69.77;101059.70;106456;1267;73035;-71
2023/01/08 04:48:26;;;;;;;23.40;11.80;;;;;;;-6.74;69.78;101055.92;106334;1264;168082;-73
2023/01/08 04:50:53;;;;;;;23.50;13.20;;;;;;;-6.82;70.17;101058.48;107848;1263;62366;-75
2023/01/08 04:53:20;;;;;;;26.30;13.30;;;;;;;-6.87;70.46;101059.09;107726;1264;70640;-77
2023/01/08 04:55:46;;;;;;;24.90;14.20;;;;;;;-6.91;70.75;101059.32;107676;1269;69992;-74
2023/01/08 04:58:13;;;;;;;27.20;13.80;;;;;;;-6.95;70.90;101059.04;108371;1257;73783;-74
2023/01/08 05:00:40;;;;;;;27.40;14.50;;;;;;;-6.94;70.82;101059.54;106659;1257;61754;-73
2023/01/08 05:03:07;;;;;;;20.20;11.40;;;;;;;-6.80;71.01;101066.02;106843;1257;62164;-73
2023/01/08 05:05:34;;;;;;;22.80;12.50;;;;;;;-6.70;71.30;101065.35;106828;1260;74082;-73
2023/01/08 05:08:01;;;;;;;24.50;13.20;;;;;;;-6.72;71.10;101067.96;106540;1257;72220;-73
2023/01/08 05:10:27;;;;;;;25.90;13.40;;;;;;;-6.77;71.55;101070.45;106860;1262;74047;-72
2023/01/08 05:12:58;;;;;;;22.50;12.00;;;;;;;-6.78;71.57;101074.09;106810;1258;59649;-72
2023/01/08 05:15:25;;;;;;;24.00;14.20;;;;;;;-6.79;71.48;101077.20;106620;1257;61117;-74
2023/01/08 05:18:00;;;;;;;26.50;13.20;;;;;;;-6.82;71.68;101076.57;106664;1263;75187;-70
2023/01/08 05:20:26;;;;;;;23.00;11.90;;;;;;;-6.86;71.81;101081.46;106831;1257;71473;-72
2023/01/08 05:22:53;;;;;;;24.90;12.90;;;;;;;-6.90;71.89;101075.34;106898;1260;73023;-73
2023/01/08 05:25:20;;;;;;;22.70;12.10;;;;;;;-6.95;71.91;101072.98;106929;1257;60481;-72
2023/01/08 05:27:47;;;;;;;28.40;13.40;;;;;;;-6.99;72.07;101074.94;106777;1257;61143;-69
2023/01/08 05:30:14;;;;;;;30.30;14.70;;;;;;;-7.06;72.16;101075.75;106687;1258;72800;-70
2023/01/08 05:32:41;;;;;;;29.00;14.50;;;;;;;-7.04;72.14;101079.50;106685;1258;69174;-70
2023/01/08 05:35:08;;;;;;;27.20;13.90;;;;;;;-6.87;72.21;101078.89;106494;1263;73779;-70
2023/01/08 05:37:36;;;;;;;23.60;13.30;;;;;;;-6.77;72.13;101079.76;106334;1259;60777;-68
2023/01/08 05:40:04;;;;;;;26.50;13.90;;;;;;;-6.78;72.30;101079.10;106514;1262;60409;-72
2023/01/08 05:42:32;;;;;;;26.40;13.80;;;;;;;-6.82;72.13;101078.29;106515;1258;74066;-72
2023/01/08 05:45:04;;;;;;;24.80;13.20;;;;;;;-6.84;72.18;101079.20;106775;1257;70999;-69
2023/01/08 05:47:31;;;;;;;28.60;14.30;;;;;;;-6.90;72.49;101085.66;107186;1262;73569;-69
2023/01/08 05:49:58;;;;;;;30.30;14.80;;;;;;;-6.94;72.49;101079.00;106735;1258;62380;-72
2023/01/08 05:52:25;;;;;;;29.70;15.50;;;;;;;-6.98;72.49;101080.96;106904;1257;62629;-73
2023/01/08 05:54:52;;;;;;;27.50;14.40;;;;;;;-7.00;72.81;101088.74;107105;1257;75570;-71
2023/01/08 05:57:19;;;;;;;26.00;13.70;;;;;;;-7.05;72.65;101091.23;106912;1257;72367;-71
2023/01/08 05:59:45;;;;;;;32.20;16.00;;;;;;;-7.13;72.76;101093.77;106871;1260;72356;-71
2023/01/08 06:02:12;;;;;;;26.80;13.50;;;;;;;-7.01;72.75;101097.38;106889;1257;63074;-73
2023/01/08 06:04:39;;;;;;;29.10;13.90;;;;;;;-6.83;72.62;101093.13;106804;1257;60424;-72
2023/01/08 06:07:07;;;;;;;24.20;12.30;;;;;;;-6.73;72.65;101092.62;106812;1263;73928;-73
2023/01/08 06:09:34;;;;;;;33.10;14.90;;;;;;;-6.74;72.72;101095.38;106828;1257;72671;-74
2023/01/08 06:12:01;;;;;;;29.90;14.60;;;;;;;-6.80;72.86;101099.96;106848;1257;71974;-72
2023/01/08 06:14:27;;;;;;;27.40;14.20;;;;;;;-6.85;72.69;101096.25;107402;1256;60388;-73
2023/01/08 06:16:54;;;;;;;32.10;14.40;;;;;;;-6.92;72.73;101099.46;107608;1256;61056;-73
2023/01/08 06:19:21;;;;;;;27.60;14.30;;;;;;;-6.98;72.83;101099.55;107373;1257;72388;-73
2023/01/08 06:21:48;;;;;;;27.10;12.90;;;;;;;-7.06;73.06;101100.71;106838;1257;71306;-72
2023/01/08 06:24:15;;;;;;;29.60;14.40;;;;;;;-7.15;72.95;101097.92;107008;1256;70699;-74
2023/01/08 06:26:42;;;;;;;31.00;14.30;;;;;;;-7.22;73.22;101095.27;107258;1257;60304;-73
2023/01/08 06:29:08;;;;;;;32.10;14.00;;;;;;;-7.16;73.33;101096.90;107240;1262;61071;-73
2023/01/08 06:31:35;;;;;;;29.30;12.50;;;;;;;-6.99;73.15;101090.95;107121;1257;75166;-76
2023/01/08 06:34:03;;;;;;;25.70;12.50;;;;;;;-6.84;73.20;101086.08;106770;1257;71325;-76
2023/01/08 06:36:30;;;;;;;26.10;12.50;;;;;;;-6.84;73.11;101087.11;106740;1260;73373;-74
2023/01/08 06:38:57;;;;;;;27.80;13.30;;;;;;;-6.91;73.26;101092.75;106563;1257;60642;-73
2023/01/08 06:41:24;;;;;;;27.40;13.30;;;;;;;-6.95;73.37;101092.62;106710;1256;60954;-76
2023/01/08 06:43:51;;;;;;;27.90;14.00;;;;;;;-6.99;73.63;101092.16;106808;1257;74182;-76
2023/01/08 06:46:18;;;;;;;28.90;15.00;;;;;;;-7.03;73.53;101096.20;106566;1257;70692;-76
2023/01/08 06:48:44;;;;;;;27.80;14.10;;;;;;;-7.05;73.73;101091.23;106512;1256;73694;-75
2023/01/08 06:51:11;;;;;;;30.80;14.10;;;;;;;-7.05;73.60;101096.39;106634;1257;61319;-77
2023/01/08 06:53:38;;;;;;;27.90;13.30;;;;;;;-7.06;73.80;101095.55;106451;1257;60950;-78
2023/01/08 06:56:08;;;;;;;28.10;14.10;;;;;;;-7.08;73.79;101094.89;106775;1259;74669;-73
2023/01/08 06:58:36;;;;;;;26.60;12.80;;;;;;;-7.06;73.83;101099.16;106829;1256;69682;-75
2023/01/08 07:01:03;;;;;;;26.30;13.20;;;;;;;-6.89;73.72;101092.01;106856;1257;71920;-74
2023/01/08 07:03:29;;;;;;;25.00;12.90;;;;;;;-6.75;73.47;101092.64;106848;1260;59842;-73
2023/01/08 07:05:57;;;;;;;27.00;14.20;;;;;;;-6.68;73.40;101093.73;107231;1256;59706;-72
2023/01/08 07:08:23;;;;;;;30.40;13.50;;;;;;;-6.64;73.70;101091.77;107141;1259;73697;-71
2023/01/08 07:10:50;;;;;;;27.40;13.20;;;;;;;-6.62;73.43;101094.49;106878;1256;72455;-73
2023/01/08 07:13:17;;;;;;;25.30;12.80;;;;;;;-6.61;73.27;101092.58;106841;1259;73659;-73
2023/01/08 07:15:44;;;;;;;30.20;13.20;;;;;;;-6.64;73.28;101087.48;106676;1257;60093;-73
2023/01/08 07:18:12;;;;;;;24.60;13.10;;;;;;;-6.67;73.17;101088.39;106762;1257;61078;-73
2023/01/08 07:20:39;;;;;;;27.70;13.40;;;;;;;-6.70;73.26;101091.02;106787;1260;74850;-72
2023/01/08 07:23:08;;;;;;;22.80;12.70;;;;;;;-6.73;73.23;101092.27;106638;1257;71384;-72
2023/01/08 07:25:35;;;;;;;27.80;14.20;;;;;;;-6.78;73.50;101089.42;106992;1256;72694;-74
2023/01/08 07:28:02;;;;;;;27.30;13.50;;;;;;;-6.82;73.60;101089.66;106971;1257;59317;-74
2023/01/08 07:30:28;;;;;;;28.00;13.70;;;;;;;-6.83;73.74;101091.23;106978;1257;60909;-74
2023/01/08 07:33:00;;;;;;;28.00;14.20;;;;;;;-6.74;73.66;101094.19;107097;1257;73156;-76
2023/01/08 07:35:27;;;;;;;24.70;12.80;;;;;;;-6.50;73.56;101087.75;106862;1258;71150;-73
2023/01/08 07:37:54;;;;;;;23.10;12.80;;;;;;;-6.33;73.49;101091.25;107131;1257;74243;-72
2023/01/08 07:40:21;;;;;;;25.40;12.80;;;;;;;-6.30;73.43;101089.97;105907;1257;60430;-74
2023/01/08 07:42:55;;;;;;;25.10;12.80;;;;;;;-6.30;73.67;101090.68;105806;1257;62217;-76
2023/01/08 07:45:22;;;;;;;21.10;11.60;;;;;;;-6.30;73.28;101093.61;105911;1255;75343;-72
2023/01/08 07:47:49;;;;;;;21.60;11.70;;;;;;;-6.32;73.05;101095.88;105899;1260;71687;-76
2023/01/08 07:50:16;;;;;;;22.10;12.00;;;;;;;-6.36;73.10;101096.64;105828;1260;73612;-74
2023/01/08 07:52:43;;;;;;;25.40;13.30;;;;;;;-6.44;72.84;101099.20;106070;1257;61258;-74
2023/01/08 07:55:09;;;;;;;23.60;12.40;;;;;;;-6.54;72.86;101101.27;105814;1256;61486;-74
2023/01/08 07:57:36;;;;;;;24.20;13.10;;;;;;;-6.62;73.10;101099.48;105965;1257;73483;-71
2023/01/08 08:00:04;;;;;;;25.90;13.40;;;;;;;-6.70;73.32;101100.14;105685;1257;72521;-73
2023/01/08 08:02:32;;;;;;;36.60;13.00;;;;;;;-6.75;73.73;101100.76;105661;1260;73531;-74
2023/01/08 08:04:59;;;;;;;20.90;12.00;;;;;;;-6.64;73.67;101099.70;105821;1257;63843;-75
2023/01/08 08:07:30;;;;;;;22.70;12.50;;;;;;;-6.47;73.34;101099.41;105618;1255;59583;-75
2023/01/08 08:09:58;;;;;;;26.20;13.40;;;;;;;-6.40;73.68;101095.68;105693;1257;74772;-72
2023/01/08 08:12:25;;;;;;;29.00;14.30;;;;;;;-6.35;73.80;101097.65;105705;1257;72364;-72
2023/01/08 08:14:52;;;;;;;25.80;12.40;;;;;;;-6.32;73.75;101106.73;105777;1257;74700;-72
2023/01/08 08:17:19;;;;;;;27.50;14.60;;;;;;;-6.34;73.29;101108.84;105764;1260;61269;-72
2023/01/08 08:19:46;;;;;;;27.30;14.50;;;;;;;-6.39;73.24;101107.38;105617;1257;61062;-73
2023/01/08 08:22:13;;;;;;;25.20;13.50;;;;;;;-6.45;73.20;101104.05;105528;1255;74179;-72
2023/01/08 08:24:40;;;;;;;21.20;12.00;;;;;;;-6.51;73.30;101108.10;105712;1257;70239;-73
2023/01/08 08:27:07;;;;;;;24.90;13.70;;;;;;;-6.52;73.60;101108.13;105806;1256;73631;-74
2023/01/08 08:29:33;;;;;;;25.40;13.70;;;;;;;-6.54;73.47;101104.19;105782;1259;59730;-74
2023/01/08 08:32:00;;;;;;;23.80;12.00;;;;;;;-6.37;73.41;101104.75;105761;1259;60377;-74
2023/01/08 08:34:27;;;;;;;26.10;12.30;;;;;;;-6.25;73.54;101098.85;105604;1257;73625;-75
2023/01/08 08:36:54;;;;;;;22.10;12.90;;;;;;;-6.22;73.35;101102.09;105688;1256;70955;-75
2023/01/08 08:39:21;;;;;;;23.20;12.60;;;;;;;-6.17;73.33;101107.33;105990;1257;73778;-75
2023/01/08 08:41:48;;;;;;;22.60;12.50;;;;;;;-6.14;73.08;101108.31;105692;1256;61282;-75
2023/01/08 08:44:15;;;;;;;21.70;12.40;;;;;;;-6.12;73.00;101112.23;105697;1257;61196;-73
2023/01/08 08:46:42;;;;;;;24.30;13.60;;;;;;;-6.13;72.58;101103.98;105701;1257;75080;-74
2023/01/08 08:49:09;;;;;;;24.80;13.90;;;;;;;-6.16;72.69;101100.42;105564;1256;69959;-72
2023/01/08 08:51:36;;;;;;;29.60;13.10;;;;;;;-6.13;72.93;101100.36;105486;1257;74928;-73
2023/01/08 08:54:03;;;;;;;22.60;12.50;;;;;;;-6.07;72.70;101096.11;105502;1257;60438;-74
2023/01/08 08:56:30;;;;;;;23.10;11.30;;;;;;;-6.06;72.72;101089.35;105689;1257;60562;-73
2023/01/08 08:58:57;;;;;;;17.70;10.00;;;;;;;-5.92;72.61;101083.72;105653;1257;76498;-74
2023/01/08 09:01:24;;;;;;;22.30;11.30;;;;;;;-5.81;72.12;101083.48;105528;1257;72646;-75
2023/01/08 09:03:51;;;;;;;18.60;10.70;;;;;;;-5.82;72.31;101083.50;105665;1257;72999;-74
2023/01/08 09:06:17;;;;;;;26.90;13.20;;;;;;;-5.85;72.25;101088.73;105662;1257;61233;-75
2023/01/08 09:08:44;;;;;;;23.10;12.40;;;;;;;-5.88;72.33;101080.86;105817;1254;61352;-74
2023/01/08 09:11:11;;;;;;;21.70;11.80;;;;;;;-5.90;72.28;101075.55;105790;1259;73471;-73
2023/01/08 09:13:40;;;;;;;23.80;12.50;;;;;;;-5.91;72.25;101070.06;106461;1254;70864;-80
2023/01/08 09:16:07;;;;;;;19.90;11.90;;;;;;;-5.93;72.42;101071.83;107163;1256;71236;-77
2023/01/08 09:18:34;;;;;;;27.20;13.10;;;;;;;-5.99;72.24;101078.88;106474;1257;60365;-78
2023/01/08 09:21:05;;;;;;;22.80;12.10;;;;;;;-6.05;72.43;101073.64;106031;1254;61300;-77
2023/01/08 09:23:33;;;;;;;22.90;11.60;;;;;;;-6.10;72.66;101074.09;106060;1254;74294;-77
2023/01/08 09:26:01;;;;;;;19.10;11.60;;;;;;;-5.95;72.85;101075.67;108534;1254;70945;-79
2023/01/08 09:28:28;;;;;;;24.20;11.20;;;;;;;-5.83;72.91;101077.13;107535;1253;74753;-76
2023/01/08 09:30:55;;;;;;;21.80;12.00;;;;;;;-5.78;72.74;101066.52;106774;1254;61854;-77
2023/01/08 09:33:22;;;;;;;25.30;13.00;;;;;;;-5.73;72.67;101070.05;107470;1257;62302;-78
2023/01/08 09:35:49;;;;;;;23.60;14.00;;;;;;;-5.68;72.69;101066.82;107955;1257;76203;-80
2023/01/08 09:38:16;;;;;;;25.40;13.30;;;;;;;-5.65;72.60;101063.29;106021;1259;71752;-78
2023/01/08 09:40:50;;;;;;;20.50;12.30;;;;;;;-5.61;72.37;101064.42;106087;1257;74773;-77
2023/01/08 09:43:18;;;;;;;23.60;13.70;;;;;;;-5.58;72.24;101065.40;105890;1259;60434;-76
2023/01/08 09:45:50;;;;;;;23.20;13.40;;;;;;;-5.54;72.42;101066.70;105710;1261;62259;-80
2023/01/08 09:48:17;;;;;;;26.00;14.10;;;;;;;-5.49;72.27;101064.34;105820;1259;75480;-74
2023/01/08 09:50:44;;;;;;;24.10;13.80;;;;;;;-5.45;72.08;101052.86;105886;1254;72537;-81
2023/01/08 09:53:13;;;;;;;26.90;16.10;;;;;;;-5.33;72.05;101049.84;105756;1254;74598;-77
2023/01/08 09:55:41;;;;;;;25.70;15.40;;;;;;;-5.11;71.89;101052.26;106023;1253;61312;-78
2023/01/08 09:58:32;;;;;;;27.60;14.40;;;;;;;-5.02;71.56;101053.05;105762;1254;60434;-83
2023/01/08 10:01:01;;;;;;;28.20;15.10;;;;;;;-5.00;71.30;101047.50;105567;1254;74580;-77
2023/01/08 10:03:39;;;;;;;24.20;15.00;;;;;;;-4.93;71.37;101053.71;106096;1254;72256;-81
2023/01/08 10:06:10;;;;;;;25.80;12.60;;;;;;;-4.81;71.17;101045.66;106082;1254;74983;-81
2023/01/08 10:08:37;;;;;;;26.90;14.00;;;;;;;-4.73;71.00;101048.03;106046;1254;60531;-80
2023/01/08 10:11:05;;;;;;;28.70;14.40;;;;;;;-4.68;70.71;101041.52;106252;1253;61176;-80
2023/01/08 10:13:34;;;;;;;24.00;14.50;;;;;;;-4.65;70.21;101038.50;106253;1254;73467;-81
2023/01/08 10:16:04;;;;;;;31.90;14.70;;;;;;;-4.68;69.99;101040.30;108771;1254;71264;-82
2023/01/08 10:18:31;;;;;;;24.80;15.00;;;;;;;-4.67;70.09;101040.27;108337;1254;73588;-82
2023/01/08 10:20:58;;;;;;;26.10;14.10;;;;;;;-4.64;69.89;101036.05;106361;1253;61337;-82
2023/01/08 10:23:25;;;;;;;29.50;14.30;;;;;;;-4.60;70.00;101035.60;106779;1254;62142;-81
2023/01/08 10:25:57;;;;;;;23.90;14.80;;;;;;;-4.54;69.96;101039.09;106444;1254;75739;-75
2023/01/08 10:28:30;;;;;;;23.00;14.10;;;;;;;-4.52;69.67;101043.02;106143;1254;71374;-74
2023/01/08 10:31:10;;;;;;;28.20;15.20;;;;;;;-4.53;69.46;101045.28;106289;1254;74805;-78
2023/01/08 10:33:38;;;;;;;27.00;15.20;;;;;;;-4.64;69.13;101041.76;106538;1254;62533;-79
2023/01/08 10:36:07;;;;;;;26.70;15.70;;;;;;;-4.72;69.27;101034.21;107317;1254;61339;-80
2023/01/08 10:38:36;;;;;;;23.60;13.90;;;;;;;-4.69;69.55;101030.65;106641;1254;72866;-79
2023/01/08 10:41:04;;;;;;;24.40;13.50;;;;;;;-4.49;69.49;101028.92;106391;1253;72588;-76
2023/01/08 10:43:33;;;;;;;23.00;12.70;;;;;;;-4.29;69.42;101023.90;106032;1255;71721;-76
2023/01/08 10:46:06;;;;;;;23.90;14.20;;;;;;;-4.22;69.33;101022.33;106345;1256;60412;-75
2023/01/08 10:48:38;;;;;;;22.20;13.10;;;;;;;-4.18;68.93;101027.02;106018;1252;60574;-75
2023/01/08 10:51:17;;;;;;;25.30;15.40;;;;;;;-4.18;68.82;101018.73;105783;1254;74616;-74
2023/01/08 10:53:44;;;;;;;29.10;15.50;;;;;;;-4.17;68.79;101011.80;105822;1259;71069;-74
2023/01/08 10:56:22;;;;;;;24.90;14.80;;;;;;;-4.07;68.98;101013.08;105922;1254;73360;-75
2023/01/08 10:58:53;;;;;;;24.00;14.40;;;;;;;-3.99;68.68;101016.98;105983;1253;62790;-76
2023/01/08 11:01:27;;;;;;;25.90;15.80;;;;;;;-4.00;67.49;101021.86;105799;1254;60454;-77
2023/01/08 11:04:02;;;;;;;32.10;17.10;;;;;;;-4.08;67.67;101021.58;106231;1252;76093;-76
2023/01/08 11:06:30;;;;;;;30.80;16.10;;;;;;;-4.15;67.79;101019.70;105679;1259;69475;-75
2023/01/08 11:08:59;;;;;;;33.80;18.20;;;;;;;-4.17;68.15;101023.03;105902;1256;73482;-72
2023/01/08 11:11:36;;;;;;;34.00;18.30;;;;;;;-4.23;67.91;101015.07;105916;1259;60981;-74
2023/01/08 11:14:05;;;;;;;33.00;18.60;;;;;;;-4.29;68.05;101004.85;105914;1256;62266;-77
2023/01/08 11:16:37;;;;;;;30.60;19.50;;;;;;;-4.28;68.17;101004.49;106128;1253;74971;-77
2023/01/08 11:19:04;;;;;;;28.10;17.00;;;;;;;-4.16;68.48;101004.84;105934;1256;68983;-74